Time;durP1;ratioP1;P1;durP2;ratioP2;P2;SDS_P1;SDS_P2;PMS_P1;PMS_P2;Temp;Humidity;BMP_temperature;BMP_pressure;BME280_temperature;BME280_humidity;BME280_pressure;Samples;Min_cycle;Max_cycle;Signal;HPM_P1;HPM_P2
2023/12/20 00:01:05;;;;;;;17.75;1.65;;;6.30;99.90;;;;;;5051707;28;20301;-67
2023/12/20 00:03:31;;;;;;;15.98;1.42;;;6.10;99.90;;;;;;5052177;28;20336;-68
2023/12/20 00:05:56;;;;;;;18.73;2.03;;;6.30;99.90;;;;;;5051377;28;20509;-67
2023/12/20 00:08:22;;;;;;;20.77;1.52;;;6.20;99.90;;;;;;5052747;28;20280;-68
2023/12/20 00:10:48;;;;;;;17.00;1.60;;;6.50;99.90;;;;;;5034390;28;20032;-67
2023/12/20 00:13:13;;;;;;;18.23;1.33;;;6.40;99.90;;;;;;5051606;28;20056;-67
2023/12/20 00:15:39;;;;;;;17.25;1.83;;;5.90;99.90;;;;;;5051983;28;20135;-68
2023/12/20 00:18:05;;;;;;;16.17;1.40;;;6.10;99.90;;;;;;5051128;28;20538;-68
2023/12/20 00:20:31;;;;;;;21.08;1.75;;;6.50;99.90;;;;;;5035373;28;20359;-68
2023/12/20 00:22:57;;;;;;;16.38;1.60;;;6.00;99.90;;;;;;5035449;28;20036;-68
2023/12/20 00:25:24;;;;;;;17.42;1.58;;;6.30;99.90;;;;;;5051925;28;20813;-68
2023/12/20 00:27:50;;;;;;;14.88;1.35;;;6.40;99.90;;;;;;5050926;28;20050;-67
2023/12/20 00:30:16;;;;;;;20.20;1.77;;;6.10;99.90;;;;;;5034531;28;20044;-67
2023/12/20 00:32:46;;;;;;;12.68;0.98;;;6.00;99.90;;;;;;5051060;28;20055;-67
2023/12/20 00:35:16;;;;;;;17.15;1.70;;;6.40;99.90;;;;;;5033890;28;20047;-67
2023/12/20 00:37:42;;;;;;;21.95;1.98;;;5.90;99.90;;;;;;5051793;28;20102;-68
2023/12/20 00:40:09;;;;;;;19.65;1.38;;;5.90;99.90;;;;;;5050620;28;20036;-68
2023/12/20 00:42:35;;;;;;;12.95;1.13;;;6.40;99.90;;;;;;5051421;28;20040;-68
2023/12/20 00:45:02;;;;;;;12.02;1.30;;;6.40;99.90;;;;;;5042609;28;20047;-68
2023/12/20 00:47:28;;;;;;;15.18;1.42;;;6.00;99.90;;;;;;5018357;28;20135;-68
2023/12/20 00:49:54;;;;;;;21.40;1.75;;;6.00;99.90;;;;;;5050992;28;20047;-68
2023/12/20 00:52:22;;;;;;;16.45;1.55;;;6.00;99.90;;;;;;5034534;28;20052;-68
2023/12/20 00:54:47;;;;;;;16.27;1.77;;;6.20;99.90;;;;;;5032575;28;20451;-68
2023/12/20 00:57:13;;;;;;;21.73;1.98;;;6.50;99.90;;;;;;5034513;28;20355;-68
2023/12/20 00:59:39;;;;;;;21.02;2.17;;;6.60;99.90;;;;;;5049911;28;20033;-68
2023/12/20 01:02:04;;;;;;;15.40;2.17;;;6.50;99.90;;;;;;5050015;28;20365;-68
2023/12/20 01:04:30;;;;;;;18.80;2.15;;;6.10;99.90;;;;;;5033780;28;20041;-70
2023/12/20 01:06:55;;;;;;;16.55;1.52;;;6.10;99.90;;;;;;5041252;28;20054;-68
2023/12/20 01:09:26;;;;;;;15.63;1.73;;;6.60;99.90;;;;;;5050310;28;20410;-68
2023/12/20 01:11:52;;;;;;;14.50;1.52;;;6.30;99.90;;;;;;5049669;28;20251;-68
2023/12/20 01:14:19;;;;;;;15.63;1.42;;;6.40;99.90;;;;;;5033143;28;20044;-68
2023/12/20 01:16:44;;;;;;;19.55;2.13;;;6.70;99.90;;;;;;5049779;28;20051;-68
2023/12/20 01:19:10;;;;;;;12.65;1.40;;;6.60;99.90;;;;;;5049766;28;20041;-67
2023/12/20 01:21:36;;;;;;;19.27;1.67;;;6.80;99.90;;;;;;5051055;28;20480;-68
2023/12/20 01:24:02;;;;;;;15.18;1.20;;;6.80;99.90;;;;;;5050318;28;20041;-68
2023/12/20 01:26:27;;;;;;;20.08;1.73;;;6.60;99.90;;;;;;5049712;28;20055;-68
2023/12/20 01:28:53;;;;;;;16.95;1.45;;;6.60;99.90;;;;;;5019328;28;20043;-68
2023/12/20 01:31:19;;;;;;;15.30;1.23;;;6.80;99.90;;;;;;5050095;28;20113;-68
2023/12/20 01:33:45;;;;;;;15.65;1.60;;;6.50;99.90;;;;;;5048996;28;20040;-67
2023/12/20 01:36:11;;;;;;;11.68;1.17;;;6.70;99.90;;;;;;5050336;28;20063;-67
2023/12/20 01:38:37;;;;;;;17.45;1.63;;;6.50;99.90;;;;;;5049555;28;20475;-68
2023/12/20 01:41:03;;;;;;;24.48;2.08;;;6.60;99.90;;;;;;5032746;28;20047;-68
2023/12/20 01:43:29;;;;;;;15.68;1.10;;;6.20;99.90;;;;;;5033670;28;20414;-68
2023/12/20 01:45:57;;;;;;;20.63;1.95;;;6.10;99.90;;;;;;5033585;28;20813;-68
2023/12/20 01:48:24;;;;;;;19.25;2.03;;;6.50;99.90;;;;;;5050059;28;20041;-67
2023/12/20 01:50:51;;;;;;;22.20;1.80;;;6.30;99.90;;;;;;5050060;28;20037;-68
2023/12/20 01:53:20;;;;;;;17.27;2.00;;;6.30;99.90;;;;;;5049708;28;20047;-68
2023/12/20 01:55:47;;;;;;;13.70;1.13;;;6.20;99.90;;;;;;5032674;28;20059;-67
2023/12/20 01:58:14;;;;;;;19.92;1.67;;;6.30;99.90;;;;;;5032437;28;20044;-67
2023/12/20 02:00:40;;;;;;;18.15;1.38;;;6.50;99.90;;;;;;5048340;28;20043;-67
2023/12/20 02:03:06;;;;;;;24.77;1.77;;;6.50;99.90;;;;;;5049354;28;20041;-67
2023/12/20 02:05:34;;;;;;;21.55;1.92;;;6.20;99.90;;;;;;5037677;28;20037;-68
2023/12/20 02:08:00;;;;;;;13.55;1.63;;;5.90;99.90;;;;;;5049401;28;20498;-67
2023/12/20 02:10:27;;;;;;;17.95;1.50;;;6.10;99.90;;;;;;5031911;28;20047;-67
2023/12/20 02:12:52;;;;;;;18.10;1.88;;;6.20;99.90;;;;;;5048846;28;20051;-68
2023/12/20 02:15:18;;;;;;;17.83;1.35;;;6.20;99.90;;;;;;5031619;28;20628;-68
2023/12/20 02:17:46;;;;;;;25.85;2.20;;;6.40;99.90;;;;;;5031469;28;20037;-68
2023/12/20 02:20:12;;;;;;;16.33;2.10;;;6.00;99.90;;;;;;5048844;28;20052;-67
2023/12/20 02:22:37;;;;;;;16.75;1.33;;;6.20;99.90;;;;;;5049273;28;20651;-67
2023/12/20 02:25:03;;;;;;;21.92;1.42;;;6.30;99.90;;;;;;5048210;28;20552;-67
2023/12/20 02:27:30;;;;;;;17.67;1.88;;;6.20;99.90;;;;;;5049195;28;20232;-68
2023/12/20 02:29:55;;;;;;;24.10;2.35;;;6.30;99.90;;;;;;5048243;28;20085;-67
2023/12/20 02:32:22;;;;;;;24.63;2.13;;;6.50;99.90;;;;;;5032094;28;20595;-67
2023/12/20 02:34:49;;;;;;;21.90;3.03;;;6.60;99.90;;;;;;5033041;28;20190;-67
2023/12/20 02:37:15;;;;;;;19.17;1.80;;;6.50;99.90;;;;;;5048932;28;20040;-68
2023/12/20 02:39:41;;;;;;;20.23;2.15;;;6.70;99.90;;;;;;5048991;28;20055;-67
2023/12/20 02:42:06;;;;;;;20.48;2.28;;;6.60;99.90;;;;;;5031013;28;20085;-67
2023/12/20 02:44:32;;;;;;;24.27;2.63;;;6.50;99.90;;;;;;5049692;28;20415;-67
2023/12/20 02:46:58;;;;;;;22.60;2.47;;;6.60;99.90;;;;;;5049946;28;20311;-67
2023/12/20 02:49:24;;;;;;;19.05;2.03;;;6.70;99.90;;;;;;5033145;28;20458;-68
2023/12/20 02:51:49;;;;;;;25.92;2.75;;;6.80;99.90;;;;;;5032521;28;20090;-67
2023/12/20 02:54:15;;;;;;;19.83;2.05;;;6.70;99.90;;;;;;5048752;28;20704;-68
2023/12/20 02:56:41;;;;;;;22.08;2.22;;;6.60;99.90;;;;;;5032158;28;20306;-67
2023/12/20 02:59:08;;;;;;;20.48;1.95;;;6.50;99.90;;;;;;5049261;28;20123;-69
2023/12/20 03:01:34;;;;;;;18.45;2.10;;;6.40;99.90;;;;;;5049693;28;20123;-68
2023/12/20 03:04:01;;;;;;;21.25;2.28;;;6.60;99.90;;;;;;5048688;28;20090;-68
2023/12/20 03:06:26;;;;;;;19.65;1.80;;;6.70;99.90;;;;;;5050120;28;20153;-67
2023/12/20 03:08:52;;;;;;;21.23;2.30;;;6.60;99.90;;;;;;5048968;28;20087;-68
2023/12/20 03:11:18;;;;;;;21.88;2.38;;;6.60;99.90;;;;;;5048740;28;20048;-67
2023/12/20 03:13:44;;;;;;;26.98;2.65;;;6.80;99.90;;;;;;5047596;28;20344;-67
2023/12/20 03:16:13;;;;;;;24.27;2.50;;;6.40;99.90;;;;;;5049052;28;20037;-68
2023/12/20 03:18:39;;;;;;;19.77;2.35;;;6.40;99.90;;;;;;5049785;28;20037;-68
2023/12/20 03:21:05;;;;;;;26.80;3.38;;;6.20;99.90;;;;;;5049735;28;20036;-67
2023/12/20 03:23:33;;;;;;;24.80;2.80;;;6.30;99.90;;;;;;5048835;28;20525;-68
2023/12/20 03:26:00;;;;;;;29.45;2.70;;;6.40;99.90;;;;;;5048906;28;20811;-68
2023/12/20 03:28:27;;;;;;;26.70;2.78;;;6.40;99.90;;;;;;5032961;28;20041;-67
2023/12/20 03:30:53;;;;;;;31.45;3.08;;;6.50;99.90;;;;;;5049499;28;20078;-68
2023/12/20 03:33:18;;;;;;;28.60;3.35;;;6.40;99.90;;;;;;5049128;28;20678;-67
2023/12/20 03:35:44;;;;;;;19.83;2.53;;;6.10;99.90;;;;;;5049669;28;20133;-68
2023/12/20 03:38:10;;;;;;;28.08;2.83;;;6.30;99.90;;;;;;5032238;28;20046;-67
2023/12/20 03:40:35;;;;;;;25.00;3.17;;;6.30;99.90;;;;;;5048407;28;20746;-68
2023/12/20 03:43:02;;;;;;;30.88;3.53;;;6.30;99.90;;;;;;5048891;28;20067;-67
2023/12/20 03:45:28;;;;;;;27.55;3.70;;;6.50;99.90;;;;;;5050034;28;20524;-68
2023/12/20 03:47:56;;;;;;;29.98;2.92;;;6.60;99.90;;;;;;5033399;28;20032;-67
2023/12/20 03:50:22;;;;;;;19.30;2.22;;;6.60;99.90;;;;;;5032416;28;20040;-68
2023/12/20 03:52:48;;;;;;;20.77;2.20;;;6.60;99.90;;;;;;5048432;28;20486;-68
2023/12/20 03:55:15;;;;;;;17.75;1.73;;;6.50;99.90;;;;;;5049190;28;20139;-68
2023/12/20 03:57:40;;;;;;;25.52;2.35;;;6.50;99.90;;;;;;5032638;28;20044;-67
2023/12/20 04:00:11;;;;;;;18.30;2.08;;;6.80;99.90;;;;;;5049056;28;20384;-68
2023/12/20 04:02:41;;;;;;;24.65;2.67;;;6.60;99.90;;;;;;5049300;28;20040;-68
2023/12/20 04:05:08;;;;;;;22.60;2.25;;;6.60;99.90;;;;;;5049536;28;20032;-67
2023/12/20 04:07:34;;;;;;;19.35;1.80;;;6.80;99.90;;;;;;5049242;28;20083;-68
2023/12/20 04:10:00;;;;;;;24.20;2.20;;;6.70;99.90;;;;;;5047987;28;20040;-68
2023/12/20 04:12:27;;;;;;;17.95;2.33;;;6.60;99.90;;;;;;5049509;28;20040;-68
2023/12/20 04:14:53;;;;;;;20.02;2.78;;;6.70;99.90;;;;;;5048615;28;20131;-68
2023/12/20 04:17:20;;;;;;;17.80;2.55;;;6.40;99.90;;;;;;5047711;28;20041;-68
2023/12/20 04:19:45;;;;;;;22.60;2.78;;;6.40;99.90;;;;;;5049475;28;20511;-68
2023/12/20 04:22:11;;;;;;;30.63;3.05;;;6.50;99.90;;;;;;5048389;28;20033;-68
2023/12/20 04:24:37;;;;;;;19.00;2.33;;;6.50;99.90;;;;;;5048006;28;20191;-68
2023/12/20 04:27:03;;;;;;;20.40;1.92;;;6.60;99.90;;;;;;5050915;28;20046;-68
2023/12/20 04:29:28;;;;;;;25.05;2.67;;;6.70;99.90;;;;;;5037310;28;20048;-68
2023/12/20 04:31:54;;;;;;;30.27;3.03;;;6.50;99.90;;;;;;5036492;28;20063;-68
2023/12/20 04:34:22;;;;;;;28.75;3.55;;;6.70;99.90;;;;;;5052135;28;20540;-68
2023/12/20 04:36:47;;;;;;;23.20;3.45;;;6.70;99.90;;;;;;5052360;28;20501;-68
2023/12/20 04:39:14;;;;;;;15.80;2.08;;;6.80;99.90;;;;;;5053002;28;20040;-68
2023/12/20 04:41:40;;;;;;;25.17;2.83;;;6.90;99.90;;;;;;5035691;28;20287;-68
2023/12/20 04:44:06;;;;;;;24.55;2.78;;;7.10;99.90;;;;;;5051705;28;20040;-68
2023/12/20 04:46:32;;;;;;;33.05;3.95;;;6.80;99.90;;;;;;5051496;28;20056;-68
2023/12/20 04:48:58;;;;;;;35.17;3.83;;;6.90;99.90;;;;;;5024766;28;20619;-68
2023/12/20 04:51:23;;;;;;;38.47;3.53;;;7.00;99.90;;;;;;5035746;28;20138;-69
2023/12/20 04:53:49;;;;;;;26.88;3.92;;;6.80;99.90;;;;;;5052193;28;20638;-68
2023/12/20 04:56:15;;;;;;;30.15;3.75;;;7.00;99.90;;;;;;5050303;28;20125;-68
2023/12/20 04:58:41;;;;;;;33.72;3.42;;;6.80;99.90;;;;;;5052458;28;20372;-69
2023/12/20 05:01:09;;;;;;;30.27;3.90;;;7.00;99.90;;;;;;5051872;28;20040;-67
2023/12/20 05:03:35;;;;;;;38.40;4.68;;;7.00;99.90;;;;;;5051180;28;20033;-68
2023/12/20 05:06:01;;;;;;;34.65;3.88;;;7.00;99.90;;;;;;5051405;28;20127;-68
2023/12/20 05:08:27;;;;;;;28.33;3.30;;;7.00;99.90;;;;;;5019895;28;20040;-68
2023/12/20 05:10:56;;;;;;;31.30;3.42;;;7.20;99.90;;;;;;5051640;28;20048;-68
2023/12/20 05:13:22;;;;;;;37.10;3.97;;;7.10;99.90;;;;;;5035122;28;20044;-68
2023/12/20 05:15:48;;;;;;;25.17;3.45;;;7.20;99.90;;;;;;5033896;28;20051;-67
2023/12/20 05:18:13;;;;;;;25.05;3.03;;;7.30;99.90;;;;;;5050237;28;20052;-68
2023/12/20 05:20:39;;;;;;;25.92;4.13;;;7.30;99.90;;;;;;5033859;28;20079;-68
2023/12/20 05:23:05;;;;;;;31.55;3.70;;;7.40;99.90;;;;;;5050493;28;20112;-68
2023/12/20 05:25:32;;;;;;;29.40;3.78;;;7.40;99.90;;;;;;5050729;28;20039;-68
2023/12/20 05:27:58;;;;;;;20.42;2.53;;;7.50;99.90;;;;;;5051458;28;20501;-68
2023/12/20 05:30:23;;;;;;;23.88;3.08;;;7.60;99.90;;;;;;5045279;28;20517;-68
2023/12/20 05:32:49;;;;;;;29.50;3.28;;;7.70;99.90;;;;;;5051360;28;20529;-68
2023/12/20 05:35:15;;;;;;;31.38;4.25;;;7.60;99.90;;;;;;5051747;28;20197;-68
2023/12/20 05:37:41;;;;;;;29.77;3.10;;;7.70;99.90;;;;;;5050266;28;20040;-68
2023/12/20 05:40:10;;;;;;;30.40;3.72;;;7.50;99.90;;;;;;5034320;28;20048;-68
2023/12/20 05:42:39;;;;;;;30.75;3.15;;;7.50;99.90;;;;;;5051330;28;20352;-68
2023/12/20 05:45:05;;;;;;;29.02;4.07;;;7.50;99.90;;;;;;5050672;28;20068;-67
2023/12/20 05:47:31;;;;;;;28.75;3.88;;;7.60;99.90;;;;;;5048763;28;20036;-68
2023/12/20 05:49:57;;;;;;;30.90;3.60;;;7.60;99.90;;;;;;5050498;28;20299;-69
2023/12/20 05:52:23;;;;;;;34.60;4.13;;;7.80;99.90;;;;;;5050502;28;20564;-68
2023/12/20 05:54:48;;;;;;;29.35;3.80;;;7.80;99.90;;;;;;5034485;28;20105;-68
2023/12/20 05:57:14;;;;;;;26.63;2.80;;;7.60;99.90;;;;;;5034482;28;20091;-68
2023/12/20 05:59:40;;;;;;;28.30;3.38;;;7.70;99.90;;;;;;5050185;28;20047;-68
2023/12/20 06:02:06;;;;;;;34.10;4.72;;;7.80;99.90;;;;;;5019028;28;20078;-68
2023/12/20 06:04:32;;;;;;;29.58;3.47;;;7.70;99.90;;;;;;5033062;28;20533;-68
2023/12/20 06:06:58;;;;;;;29.05;4.00;;;7.80;99.90;;;;;;5018809;28;20113;-68
2023/12/20 06:09:24;;;;;;;29.98;3.72;;;7.80;99.90;;;;;;5034512;28;20455;-68
2023/12/20 06:11:50;;;;;;;33.88;4.25;;;7.80;99.90;;;;;;5049593;28;20139;-68
2023/12/20 06:14:16;;;;;;;29.58;4.03;;;7.70;99.90;;;;;;5048218;28;20608;-68
2023/12/20 06:16:41;;;;;;;29.73;4.25;;;7.70;99.90;;;;;;5049892;28;20032;-68
2023/12/20 06:19:07;;;;;;;25.10;2.80;;;7.70;99.90;;;;;;5049455;28;20148;-68
2023/12/20 06:21:34;;;;;;;27.17;3.85;;;7.70;99.90;;;;;;5050385;28;20351;-68
2023/12/20 06:24:01;;;;;;;26.33;3.47;;;7.80;99.90;;;;;;5031830;28;20152;-68
2023/12/20 06:26:26;;;;;;;29.80;3.13;;;7.80;99.90;;;;;;5033159;28;20051;-68
2023/12/20 06:28:52;;;;;;;32.65;3.72;;;7.60;99.90;;;;;;5050383;28;20050;-69
2023/12/20 06:31:18;;;;;;;36.42;4.07;;;7.60;99.90;;;;;;5033244;28;20043;-68
2023/12/20 06:33:44;;;;;;;34.55;4.18;;;7.70;99.90;;;;;;5032971;28;20075;-68
2023/12/20 06:36:13;;;;;;;37.40;4.30;;;7.60;99.90;;;;;;5048369;28;20052;-68
2023/12/20 06:38:39;;;;;;;33.88;3.78;;;7.60;99.90;;;;;;5049840;28;20041;-68
2023/12/20 06:41:05;;;;;;;36.95;5.25;;;7.70;99.90;;;;;;5016751;28;20032;-68
2023/12/20 06:43:32;;;;;;;35.50;4.50;;;7.60;99.90;;;;;;5033685;28;20032;-67
2023/12/20 06:45:58;;;;;;;30.70;3.83;;;7.80;99.90;;;;;;5049382;28;20087;-68
2023/12/20 06:48:24;;;;;;;26.23;3.65;;;7.80;99.90;;;;;;5048771;28;20037;-68
2023/12/20 06:50:49;;;;;;;27.02;3.65;;;7.90;99.90;;;;;;5015967;28;20146;-69
2023/12/20 06:53:15;;;;;;;31.30;3.80;;;7.90;99.90;;;;;;5048758;28;20045;-68
2023/12/20 06:55:41;;;;;;;35.15;4.47;;;7.80;99.90;;;;;;5032937;28;20063;-68
2023/12/20 06:58:07;;;;;;;28.50;4.10;;;7.80;99.90;;;;;;5049505;28;20379;-68
2023/12/20 07:00:33;;;;;;;26.75;3.58;;;7.80;99.90;;;;;;5050160;28;20055;-68
2023/12/20 07:02:59;;;;;;;33.40;3.97;;;7.80;99.90;;;;;;5049408;28;20075;-68
2023/12/20 07:05:25;;;;;;;29.45;3.63;;;7.90;99.90;;;;;;5033855;28;20407;-68
2023/12/20 07:07:50;;;;;;;30.08;4.07;;;7.90;99.90;;;;;;5018308;28;20494;-68
2023/12/20 07:10:16;;;;;;;26.42;3.25;;;7.60;99.90;;;;;;5035021;28;20121;-68
2023/12/20 07:12:42;;;;;;;28.40;3.30;;;7.70;99.90;;;;;;5050278;28;20136;-68
2023/12/20 07:15:08;;;;;;;32.65;3.95;;;7.80;99.90;;;;;;5049923;28;20498;-68
2023/12/20 07:17:34;;;;;;;27.25;3.47;;;7.80;99.90;;;;;;5050135;28;20522;-68
2023/12/20 07:20:03;;;;;;;42.53;5.10;;;7.80;99.90;;;;;;5032831;28;20450;-68
2023/12/20 07:22:33;;;;;;;34.67;3.85;;;7.80;99.90;;;;;;5033543;28;20044;-69
2023/12/20 07:24:59;;;;;;;35.85;4.60;;;8.00;99.90;;;;;;5034409;28;20490;-68
2023/12/20 07:27:26;;;;;;;29.38;4.03;;;8.00;99.90;;;;;;5017266;28;20353;-68
2023/12/20 07:29:51;;;;;;;32.78;4.13;;;8.00;99.90;;;;;;5050061;28;20298;-68
2023/12/20 07:32:17;;;;;;;36.22;4.40;;;8.10;99.90;;;;;;5033992;28;20201;-68
2023/12/20 07:34:43;;;;;;;39.90;4.95;;;8.00;99.90;;;;;;5050015;28;20041;-68
2023/12/20 07:37:11;;;;;;;34.08;4.65;;;8.00;99.90;;;;;;5049437;28;20094;-68
2023/12/20 07:39:39;;;;;;;32.10;3.67;;;8.10;99.90;;;;;;5017695;28;20364;-68
2023/12/20 07:42:06;;;;;;;36.47;4.72;;;8.20;99.90;;;;;;5033107;28;20198;-68
2023/12/20 07:44:31;;;;;;;34.10;3.97;;;8.20;99.90;;;;;;5048889;28;20403;-68
2023/12/20 07:46:57;;;;;;;30.33;3.58;;;8.10;99.90;;;;;;5032668;28;20410;-68
2023/12/20 07:49:23;;;;;;;24.17;3.08;;;8.20;99.90;;;;;;5048948;28;20049;-68
2023/12/20 07:51:49;;;;;;;32.97;4.47;;;8.10;99.90;;;;;;5033494;28;20422;-68
2023/12/20 07:54:15;;;;;;;29.85;3.85;;;7.90;99.90;;;;;;5033442;28;20532;-67
2023/12/20 07:56:41;;;;;;;30.45;4.05;;;8.00;99.90;;;;;;5048646;28;20131;-68
2023/12/20 07:59:07;;;;;;;27.17;4.10;;;8.00;99.90;;;;;;5016921;28;20668;-67
2023/12/20 08:01:33;;;;;;;32.08;4.07;;;8.00;99.90;;;;;;5052517;28;20041;-68
2023/12/20 08:03:58;;;;;;;30.88;4.25;;;7.80;99.90;;;;;;5037118;28;20131;-68
2023/12/20 08:06:24;;;;;;;36.78;4.35;;;7.80;99.90;;;;;;5053401;28;20055;-67
2023/12/20 08:08:50;;;;;;;27.60;4.18;;;7.90;99.90;;;;;;5022084;28;20048;-68
2023/12/20 08:11:16;;;;;;;28.35;4.35;;;7.80;99.90;;;;;;5050950;28;20551;-67
2023/12/20 08:13:43;;;;;;;21.73;3.70;;;8.10;99.90;;;;;;5006915;28;20309;-69
2023/12/20 08:16:13;;;;;;;25.90;3.75;;;8.10;99.90;;;;;;5051886;28;20446;-67
2023/12/20 08:18:39;;;;;;;29.05;4.45;;;8.20;99.90;;;;;;5052113;28;20158;-67
2023/12/20 08:21:07;;;;;;;34.42;3.92;;;8.20;99.90;;;;;;5052662;28;20048;-67
2023/12/20 08:23:34;;;;;;;31.25;3.80;;;8.20;99.90;;;;;;5052112;28;20104;-67
2023/12/20 08:26:04;;;;;;;25.40;3.92;;;8.00;99.90;;;;;;5052715;28;20371;-67
2023/12/20 08:28:31;;;;;;;32.95;4.25;;;8.20;99.90;;;;;;5020678;28;20040;-67
2023/12/20 08:30:56;;;;;;;22.27;3.22;;;8.00;99.90;;;;;;5053458;28;20457;-67
2023/12/20 08:33:22;;;;;;;17.02;1.88;;;7.80;99.90;;;;;;5053305;28;20463;-67
2023/12/20 08:35:48;;;;;;;10.88;0.80;;;7.10;99.90;;;;;;5054108;28;20460;-68
2023/12/20 08:38:14;;;;;;;15.15;1.40;;;6.70;99.90;;;;;;5053273;28;20044;-68
2023/12/20 08:40:40;;;;;;;15.50;1.17;;;6.70;99.90;;;;;;5036510;28;20032;-68
2023/12/20 08:43:05;;;;;;;18.73;1.75;;;6.40;99.90;;;;;;5052839;28;20075;-67
2023/12/20 08:45:31;;;;;;;21.13;1.40;;;6.40;99.90;;;;;;5053147;28;20072;-68
2023/12/20 08:47:57;;;;;;;20.30;1.40;;;6.20;99.90;;;;;;5053033;28;20052;-67
2023/12/20 08:50:23;;;;;;;18.52;1.15;;;6.30;99.90;;;;;;5053033;28;20207;-68
2023/12/20 08:52:48;;;;;;;9.73;0.70;;;6.50;99.90;;;;;;5053358;28;20059;-67
2023/12/20 08:55:16;;;;;;;11.15;0.63;;;6.20;99.90;;;;;;5035916;28;20455;-67
2023/12/20 08:57:42;;;;;;;8.98;0.70;;;6.10;99.90;;;;;;5052219;28;20552;-67
2023/12/20 09:00:08;;;;;;;10.55;0.70;;;6.20;99.90;;;;;;5052297;28;20044;-67
2023/12/20 09:02:35;;;;;;;14.95;0.77;;;6.30;99.90;;;;;;5052496;28;20477;-67
2023/12/20 09:05:02;;;;;;;10.52;0.65;;;5.90;99.90;;;;;;5053275;28;20358;-68
2023/12/20 09:07:30;;;;;;;13.38;1.20;;;6.00;99.90;;;;;;5052746;28;20052;-67
2023/12/20 09:09:56;;;;;;;17.10;0.70;;;6.10;99.90;;;;;;5052232;28;20140;-66
2023/12/20 09:12:22;;;;;;;13.48;1.00;;;5.90;99.90;;;;;;5051341;28;20371;-67
2023/12/20 09:14:49;;;;;;;11.20;0.80;;;5.90;99.90;;;;;;5035910;28;20048;-66
2023/12/20 09:17:16;;;;;;;11.77;0.77;;;6.00;99.90;;;;;;5019315;28;20142;-67
2023/12/20 09:19:45;;;;;;;13.27;1.30;;;5.90;99.90;;;;;;5052779;28;20051;-66
2023/12/20 09:22:12;;;;;;;15.02;1.02;;;6.20;99.90;;;;;;5019080;28;20079;-67
2023/12/20 09:24:38;;;;;;;11.02;0.80;;;6.20;99.90;;;;;;5051914;28;20670;-66
2023/12/20 09:27:05;;;;;;;11.40;0.60;;;5.80;99.90;;;;;;5051106;28;20263;-67
2023/12/20 09:29:31;;;;;;;6.30;0.40;;;5.90;99.90;;;;;;5051644;28;20044;-67
2023/12/20 09:31:57;;;;;;;13.52;0.70;;;6.20;99.90;;;;;;5050723;28;20044;-67
2023/12/20 09:34:24;;;;;;;12.32;0.60;;;5.90;99.90;;;;;;5050501;28;20044;-67
2023/12/20 09:36:49;;;;;;;10.55;0.30;;;6.10;99.90;;;;;;5051014;28;20044;-67
2023/12/20 09:39:21;;;;;;;11.98;0.80;;;6.00;99.90;;;;;;5033861;28;20064;-66
2023/12/20 09:41:59;;;;;;;13.23;0.55;;;6.10;99.90;;;;;;5052502;28;20039;-67
2023/12/20 09:44:25;;;;;;;11.38;0.80;;;6.40;99.90;;;;;;5050199;28;20035;-67
2023/12/20 09:46:52;;;;;;;13.38;1.05;;;6.50;99.90;;;;;;5033445;28;20397;-67
2023/12/20 09:49:19;;;;;;;11.82;0.80;;;6.20;99.90;;;;;;5018622;28;20135;-67
2023/12/20 09:51:46;;;;;;;15.50;0.90;;;6.10;99.90;;;;;;5050535;28;20120;-67
2023/12/20 09:54:15;;;;;;;12.73;1.08;;;6.20;99.90;;;;;;5033401;28;20072;-67
2023/12/20 09:56:41;;;;;;;20.42;1.55;;;6.50;99.90;;;;;;5049147;28;20057;-67
2023/12/20 09:59:06;;;;;;;16.85;1.17;;;6.70;99.90;;;;;;5049697;28;20451;-67
2023/12/20 10:01:34;;;;;;;15.45;0.82;;;6.80;99.90;;;;;;5034483;28;20080;-67
2023/12/20 10:04:00;;;;;;;15.38;1.08;;;6.90;99.90;;;;;;5050385;28;20056;-67
2023/12/20 10:06:26;;;;;;;12.50;1.30;;;7.10;99.90;;;;;;5049373;28;20051;-67
2023/12/20 10:08:52;;;;;;;18.60;1.55;;;7.10;99.90;;;;;;5049862;28;20048;-66
2023/12/20 10:11:19;;;;;;;15.05;1.25;;;7.10;99.90;;;;;;5050352;28;20040;-67
2023/12/20 10:13:48;;;;;;;14.98;1.45;;;7.30;99.90;;;;;;5050384;28;20259;-67
2023/12/20 10:16:13;;;;;;;19.00;2.00;;;7.60;99.90;;;;;;5048319;28;20178;-67
2023/12/20 10:18:39;;;;;;;19.38;2.45;;;8.20;99.90;;;;;;5048737;28;20308;-67
2023/12/20 10:21:07;;;;;;;15.40;1.58;;;8.40;99.90;;;;;;5049232;28;20123;-67
2023/12/20 10:23:33;;;;;;;17.95;1.80;;;8.80;99.90;;;;;;5033325;28;20347;-68
2023/12/20 10:25:59;;;;;;;21.48;1.90;;;8.80;99.90;;;;;;5049423;28;20325;-67
2023/12/20 10:28:28;;;;;;;16.85;1.35;;;8.70;99.90;;;;;;5049441;28;20044;-69
2023/12/20 10:30:58;;;;;;;18.45;1.63;;;8.80;99.90;;;;;;5049797;28;20040;-68
2023/12/20 10:33:28;;;;;;;17.35;2.35;;;8.90;99.90;;;;;;5066713;28;20044;-67
2023/12/20 10:35:55;;;;;;;18.50;2.10;;;9.10;99.90;;;;;;5048919;28;20040;-68
2023/12/20 10:38:21;;;;;;;17.75;2.55;;;9.20;99.90;;;;;;5049939;28;20044;-67
2023/12/20 10:40:47;;;;;;;22.75;2.20;;;9.10;99.90;;;;;;5050277;28;20108;-67
2023/12/20 10:43:14;;;;;;;18.08;2.63;;;9.20;99.90;;;;;;5049539;28;20036;-68
2023/12/20 10:45:42;;;;;;;21.75;2.60;;;9.10;99.90;;;;;;5048377;28;20064;-68
2023/12/20 10:48:09;;;;;;;20.77;2.45;;;9.40;99.90;;;;;;5033018;28;20183;-68
2023/12/20 10:50:38;;;;;;;22.35;2.10;;;9.40;99.90;;;;;;5048863;28;20115;-67
2023/12/20 10:53:04;;;;;;;20.25;2.60;;;9.50;99.90;;;;;;5049102;28;20040;-68
2023/12/20 10:55:30;;;;;;;20.00;2.30;;;9.50;99.90;;;;;;5046570;28;20039;-68
2023/12/20 10:58:08;;;;;;;30.05;4.20;;;9.80;99.90;;;;;;5048725;28;20063;-68
2023/12/20 11:00:43;;;;;;;20.25;2.55;;;9.90;99.90;;;;;;5049486;28;20045;-68
2023/12/20 11:03:11;;;;;;;19.00;1.95;;;10.10;99.90;;;;;;5047910;28;20321;-68
2023/12/20 11:06:19;;;;;;;21.35;2.90;;;10.10;99.90;;;;;;5047161;28;20040;-68
2023/12/20 11:09:12;;;;;;;20.02;2.63;;;10.00;99.90;;;;;;5050513;28;20552;-69
2023/12/20 11:12:09;;;;;;;23.50;2.85;;;10.00;99.90;;;;;;5048924;28;20036;-69
2023/12/20 11:14:41;;;;;;;21.80;2.45;;;10.20;99.90;;;;;;5049531;28;20292;-69
2023/12/20 11:17:13;;;;;;;28.25;2.95;;;10.10;99.90;;;;;;5048264;28;20045;-69
2023/12/20 11:19:58;;;;;;;21.30;2.80;;;10.20;99.90;;;;;;5044161;28;20604;-68
2023/12/20 11:22:31;;;;;;;21.83;2.20;;;10.20;99.90;;;;;;5049807;28;20525;-69
2023/12/20 11:25:10;;;;;;;28.50;3.75;;;10.20;99.90;;;;;;5049305;28;20513;-68
2023/12/20 11:27:40;;;;;;;27.88;3.05;;;10.40;99.90;;;;;;5049960;28;20461;-69
2023/12/20 11:30:08;;;;;;;17.05;2.17;;;10.50;99.90;;;;;;5048207;28;20710;-68
2023/12/20 11:32:36;;;;;;;27.10;3.13;;;10.70;99.90;;;;;;5049563;28;20052;-68
2023/12/20 11:35:08;;;;;;;20.30;2.42;;;10.70;99.90;;;;;;5050210;28;20151;-68
2023/12/20 11:37:38;;;;;;;23.45;3.20;;;10.50;99.90;;;;;;5036410;28;20494;-69
2023/12/20 11:40:09;;;;;;;20.95;2.88;;;10.50;99.90;;;;;;5053262;28;20032;-68
2023/12/20 11:42:42;;;;;;;29.73;3.10;;;10.40;99.90;;;;;;5052728;28;20597;-68
2023/12/20 11:45:14;;;;;;;;;;;10.40;99.90;;;;;;5052574;28;20052;-68
2023/12/20 11:47:45;;;;;;;24.55;3.00;;;10.60;99.90;;;;;;5052221;28;19924;-69
2023/12/20 11:50:11;;;;;;;27.23;3.40;;;10.80;99.90;;;;;;5053106;28;20611;-69
2023/12/20 11:52:37;;;;;;;25.13;3.00;;;11.10;99.90;;;;;;5051995;28;20070;-68
2023/12/20 11:55:03;;;;;;;28.48;3.72;;;11.00;99.90;;;;;;5053041;28;20040;-69
2023/12/20 11:57:30;;;;;;;26.48;3.38;;;10.70;99.90;;;;;;5050757;28;20044;-69
2023/12/20 11:59:56;;;;;;;23.80;3.20;;;10.00;99.90;;;;;;5054644;28;20051;-68
2023/12/20 12:02:23;;;;;;;26.42;3.30;;;9.70;99.90;;;;;;5052586;28;20045;-68
2023/12/20 12:04:52;;;;;;;20.25;2.45;;;9.40;99.90;;;;;;5051984;28;20060;-68
2023/12/20 12:07:18;;;;;;;23.27;3.33;;;9.10;99.90;;;;;;5037204;28;20036;-68
2023/12/20 12:09:45;;;;;;;28.30;3.08;;;9.10;99.90;;;;;;5052803;28;20406;-68
2023/12/20 12:12:12;;;;;;;24.02;2.92;;;9.00;99.90;;;;;;5035048;28;20044;-68
2023/12/20 12:14:40;;;;;;;29.52;3.33;;;9.00;99.90;;;;;;5036947;28;20048;-68
2023/12/20 12:17:15;;;;;;;20.80;2.72;;;9.00;99.90;;;;;;5052847;28;20037;-68
2023/12/20 12:19:42;;;;;;;25.35;3.47;;;8.90;99.90;;;;;;5052843;28;20312;-68
2023/12/20 12:22:14;;;;;;;27.20;3.30;;;8.90;99.90;;;;;;5052359;28;20040;-68
2023/12/20 12:24:49;;;;;;;25.67;3.30;;;8.80;99.90;;;;;;5052100;28;20047;-68
2023/12/20 12:27:15;;;;;;;32.78;3.22;;;8.70;99.90;;;;;;5052703;28;20268;-68
2023/12/20 12:30:00;;;;;;;34.40;3.67;;;8.70;99.90;;;;;;5053402;28;20557;-68
2023/12/20 12:32:25;;;;;;;24.38;3.15;;;8.70;99.90;;;;;;5034591;28;20052;-68
2023/12/20 12:34:51;;;;;;;22.05;2.83;;;8.60;99.90;;;;;;5035570;28;20289;-68
2023/12/20 12:37:17;;;;;;;23.98;3.00;;;8.50;99.90;;;;;;5052777;28;20512;-68
2023/12/20 12:39:43;;;;;;;28.17;3.30;;;8.50;99.90;;;;;;5036211;28;20036;-68
2023/12/20 12:42:08;;;;;;;23.98;2.63;;;8.50;99.90;;;;;;5034766;28;20044;-67
2023/12/20 12:44:34;;;;;;;32.47;3.80;;;8.40;99.90;;;;;;5051952;28;20040;-67